x

Diamond Shoals (41025) Wave Buoy

6:50 - Mon 23rd Jan 2017 All times are EST. -5 hours from GMT.

  • Sig Wave height 6.9ft
  • Swell Direction
  • Peak Period 11s
  • Average Period 7s
  • Wind
    13mph, 18mph gusts
  • Sea Temp 76°f
  • Ar Temp 62°f
  • Sea Pressure 989.4mb
  • Diamond Shoals
  • Diamond Shoals

More Historic Weather Station data

Upgrade to MSW Pro to gain access to the past 30 days of data for over 8000 Wavebouys and Weather Stations around the globe.

Join Pro

Comparision Forecast

View Surf forecast
   
Seg 01/23 6:50 7ft 11s 7s 13 18 mph 989.4mb 76f 62f
5:50 8ft 11s 8s 16 20 mph 989.8mb 76f 62f
4:50 6.5ft 9s 7s 11 13 mph 989mb 76f 62f
3:50 7ft 10s 7s 2 7 mph 989.4mb 76f 64f
2:50 7ft 7s 6s 7 11 mph 990.2mb 76f 62f
1:50 7.5ft 13s 7s 20 27 mph 991mb 76f 64f
12:50 7.5ft 7s 7s 16 22 mph 991.4mb 76f 64f
11:50 6.5ft 14s 6s 20 25 mph 992.1mb 76f 64f
10:50 6.5ft 11s 6s 27 34 mph 992.5mb 76f 66f
9:50 7ft 14s 6s 27 31 mph 992.8mb 76f 68f
7:50 8.5ft 7s 6s 27 34 mph 991.4mb 72f 70f
6:50 9ft 7s 6s 27 36 mph 990.5mb 72f 72f
5:50 9.5ft 6s 6s 29 36 mph 991.1mb 72f 71f
4:50 7ft 5s 5s 27 31 mph 991.6mb 72f 73f
3:50 6ft 8s 5s 27 36 mph 992.8mb 73f 72f
2:50 5ft 14s 6s 16 20 mph 995.1mb 71f 67f
1:50 5ft 14s 5s 20 27 mph 996.7mb 71f 67f
12:50 4.5ft 8s 6s 16 20 mph 997.3mb 71f 63f
Dom 01/22 11:50 4.5ft 13s 6s 13 16 mph 998.8mb 71f 63f
10:50 3.5ft 13s 6s 13 16 mph 998.8mb 71f 63f
9:50 4ft 13s 6s 13 16 mph 999.8mb 71f 60f
8:50 4ft 13s 6s 11 13 mph 1000.1mb 71f 62f
6:50 3.5ft 13s 6s 11 13 mph 1001mb 71f 64f
5:50 4.5ft 11s 6s 13 16 mph 1001.2mb 71f 65f
4:50 4ft 11s 6s 16 18 mph 1001.1mb 71f 67f
3:50 4ft 12s 6s 11 16 mph 1000.3mb 72f 66f
2:50 4ft 11s 6s 9 11 mph 999.9mb 72f 65f
1:50 4.5ft 14s 6s 11 13 mph 1000.4mb 72f 64f
12:50 4.5ft 11s 5s 11 16 mph 1002.5mb 73f 64f
11:50 5ft 11s 5s 13 16 mph 1003.5mb 73f 64f
10:50 5ft 12s 5s 16 20 mph 1004.4mb 73f 64f
9:50 6ft 7s 5s 25 29 mph 1005.3mb 73f 65f
8:50 6ft 5s 5s 20 25 mph 1004.7mb 73f 65f
7:50 6ft 6s 5s 22 27 mph 1003.7mb 73f 65f
6:50 6ft 5s 5s 27 34 mph 1003.8mb 73f 66f
5:50 6ft 5s 5s 27 31 mph 1003.3mb 73f 66f
4:50 6ft 6s 5s 27 34 mph 1003.4mb 73f 67f
3:50 6ft 6s 5s 29 34 mph 1003.4mb 73f 69f
2:50 7ft 6s 5s 25 31 mph 1003.3mb 73f 72f
1:50 7ft 6s 5s 25 29 mph 1002.5mb 74f 73f
12:50 6ft 6s 5s 25 29 mph 1003.3mb 74f 73f
Sáb 01/21 11:50 5ft 5s 5s 11 18 mph 1005.8mb 74f 68f
10:50 5.5ft 5s 5s 7 11 mph 1006.8mb 73f 68f
9:50 5ft 4s 5s 22 29 mph 1007mb 73f 70f
8:50 4ft 10s 5s 22 31 mph 1007.6mb 73f 71f
7:50 3.5ft 11s 5s 16 18 mph 1008.3mb 73f 70f
6:50 3.5ft 11s 6s 16 20 mph 1008.8mb 74f 72f
5:50 3.5ft 10s 6s 11 16 mph 1009.1mb 74f 71f
4:50 3.5ft 10s 6s 11 13 mph 1009.4mb 74f 71f
3:50 3.5ft 9s 7s 11 13 mph 1009.5mb 74f 70f
2:50 4ft 11s 7s 11 13 mph 1009.8mb 74f 69f
1:50 3.5ft 11s 7s 11
mph
1010.1mb 75f 68f
12:50 3.5ft 11s 6s 7 9 mph 1011.4mb 75f 66f
11:50 4ft 11s 7s 9 13 mph 1012.4mb 75f 64f
10:50 4ft 11s 7s 7 9 mph 1014mb 75f 62f
9:50 3.5ft 11s 7s 7 9 mph 1014.5mb 74f 60f
8:50 3.5ft 10s 6s 9 11 mph 1014.1mb 74f 58f
7:50 4ft 11s 6s 11 16 mph 1013.6mb 74f 58f
6:50 4ft 11s 6s 11 16 mph 1013.5mb 74f 58f
5:50 4.5ft 11s 6s 11 18 mph 1013.3mb 74f 57f
4:50 5ft 11s 6s 16 18 mph 1012.5mb 74f 57f
3:50 4.5ft 11s 6s 16 20 mph 1012.6mb 74f 56f
2:50 4.5ft 10s 5s 18 20 mph 1012.5mb 75f 57f
1:50 4.5ft 11s 6s 18 22 mph 1012mb 75f 60f
12:50 4.5ft 10s 6s 16 20 mph 1011.9mb 75f 61f
Sex 01/20 11:50 4.5ft 11s 6s 16 20 mph 1012mb 75f 62f
10:50 4ft 14s 6s 13 18 mph 1012mb 76f 64f
9:50 4.5ft 14s 6s 13 16 mph 1011.7mb 76f 64f
8:50 5ft 13s 6s 13 16 mph 1011.3mb 76f 67f
7:50 5ft 13s 6s 13 18 mph 1010.7mb 76f 67f
6:50 5ft 14s 6s 18 22 mph 1010.5mb 76f 71f
5:50 5ft 14s 6s 18 20 mph 1010.2mb 76f 71f
4:50 5.5ft 13s 6s 18 25 mph 1009.7mb 76f 72f
3:50 5ft 11s 6s 22 27 mph 1009.6mb 76f 71f
2:50 4.5ft 11s 6s 22 27 mph 1009.9mb 76f 71f
1:50 4.5ft 12s 7s 18 22 mph 1010.6mb 76f 70f
12:50 5ft 12s 7s 16 20 mph 1011.7mb 76f 69f
11:50 5ft 12s 8s 16 18 mph 1012.4mb 76f 68f
10:50 5ft 12s 9s 13 18 mph 1014.1mb 76f 68f
9:50 5ft 12s 9s 4 9 mph 1015.5mb 76f 65f
8:50 5ft 12s 9s 9 11 mph 1014.9mb 76f 62f
7:50 5ft 12s 8s 7 11 mph 1014.8mb 76f 61f
6:50 4.5ft 11s 8s 2 7 mph 1015.2mb 76f 60f
5:50 5ft 13s 8s 7 9 mph 1015mb 76f 59f
4:50 5.5ft 11s 8s 4 9 mph 1015.4mb 76f 58f
3:50 5.5ft 11s 8s 2 9 mph 1016.2mb 76f 58f
2:50 4.5ft 11s 8s 7 9 mph 1016.1mb 76f 57f
1:50 4.5ft 10s 7s 4 9 mph 1016.2mb 76f 57f